Terminal Aerodrome Forecast
Issued by NWS Tulsa, OK

Home | Current Version | Previous Version | Text Only | Print | Product List | Glossary On
Versions: 1 2 3 4 5 6 7 8 9 10 11 12
000
FTUS44 KTSA 221100
TAFFSM
TAF
KFSM 221132Z 2212/2312 07005KT P6SM SCT060
      TEMPO 2212/2215 5SM BR
     FM221500 08006KT P6SM SCT060 SCT250
     FM230000 07003KT P6SM BKN250
     FM231100 07003KT P6SM SCT150 BKN250=

USA.gov is the U.S. government's official web portal to all federal, state and local government web resources and services.